Terminal Aerodrome Forecast
Issued by NWS

Home | Current Version | Previous Version | Graphics & Text | Print | Product List | Glossary On
Versions: 1 2 3 4 5 6 7 8 9 10 11 12 13 14 15
000
FTUS43 KABR 050520
TAFPIR
TAF
KPIR 050520Z 0506/0606 18009KT P6SM SCT080 BKN120
     FM050800 23006KT P6SM BKN040 OVC080
     FM051400 30012KT 4SM -SN BKN025 OVC040
     FM052100 32009KT P6SM FEW030 BKN080 OVC150
     FM060100 25006KT P6SM BKN250=

USA.gov is the U.S. government's official web portal to all federal, state and local government web resources and services.